Moose River, Maine
Current Conditions -  °F | °C
As of 8:00 AM on Saturday 25 Oct 2014 (Local Time) from CYSC Reporting Station
Clear Clear  
Wind Chill: 32°   Ceiling: Unl
Heat Index: 32°   Visibility: 9mi
Dew Point: 32°   Wind: 3mph
Humidity: 100%   Direction: 90°E
Pressure: 29.73"   Gusts: NA
Location:  45.7142°N, 70.304°W
Report Text: CYSC 251200Z AUTO 09003KT 9SM CLR M00/M00 A2973 RMK ICG PAST HR SLP076
Loading
Personal Weather Stations






























Interactive Weather Map
Tropical Storm Tracking
New forecast layout! Learn more

10-Day Weather Forecast

Advertisements
Track Severe Weather on mobile